KBED/BED METAR and TAF weather

Enter ICAO airport designator
Station Type Date Time Source
KBED METAR 2021/09/27 07:51 UTC NOAA

KBED 270751Z AUTO 22006KT 10SM CLR 12/09 A2990 RMK AO2 SLP138 T01220089


Station Type Date Time Source
KBED Decoded METAR 2021/09/27 07:51 UTC NOAA

BEDFORD HANSCOM FIELD, MA, United States (KBED) 42-28N 071-18W 50M
Sep 27, 2021 - 03:51 AM EDT / 2021.09.27 0751 UTC
Wind: from the SW (220 degrees) at 7 MPH (6 KT):0
Visibility: 10 mile(s):0
Sky conditions: clear
Temperature: 54.0 F (12.2 C)
Dew Point: 48.0 F (8.9 C)
Relative Humidity: 80%
Pressure (altimeter): 29.9 in. Hg (1012 hPa)
ob: KBED 270751Z AUTO 22006KT 10SM CLR 12/09 A2990 RMK AO2 SLP138 T01220089
cycle: 8

Station Type Date Time Source
KBED TAF 2021/09/27 06:27 UTC NOAA

TAF KBED 270525Z 2706/2806 22004KT P6SM FEW250
FM271300 23007KT P6SM FEW090
FM271800 24008KT P6SM BKN090
FM280000 22008KT P6SM BKN150

Example: see airport list